Osborne, Kansas
Current Conditions -  °F | °C
As of 6:53 AM on Sunday 23 Nov 2014 (Local Time) from KRSL Reporting Station
Overcast Overcast  
Wind Chill: 50°   Ceiling: 3300
Heat Index: 50°   Visibility: 10mi
Dew Point: 46°   Wind: 6mph
Humidity: 86%   Direction: 130°SE
Pressure: 29.47"   Gusts: NA
Location:  39.44°N, 98.69°W
Report Text: KRSL 231253Z AUTO 13005KT 10SM SCT026 OVC033 10/08 A2947 RMK AO2 SLP976 T01000078
Loading
Personal Weather Stations






























Interactive Weather Map New forecast layout! Learn more

10-Day Weather Forecast

Advertisements
Track Severe Weather on mobile